Time;durP1;ratioP1;P1;durP2;ratioP2;P2;SDS_P1;SDS_P2;PMS_P1;PMS_P2;Temp;Humidity;BMP_temperature;BMP_pressure;BME280_temperature;BME280_humidity;BME280_pressure;Samples;Min_cycle;Max_cycle;Signal;HPM_P1;HPM_P2
2024/03/27 00:02:16;;;;;;;;;;;;;;;;;;5027945;28;19924;-47
2024/03/27 00:04:42;;;;;;;;;;;;;;;;;;5024435;28;19920;-50
2024/03/27 00:07:08;;;;;;;;;;;;;;;;;;5014065;28;19921;-46
2024/03/27 00:09:34;;;;;;;;;;;;;;;;;;5014103;28;19913;-49
2024/03/27 00:12:01;;;;;;;;;;;;;;;;;;5032315;28;20384;-47
2024/03/27 00:14:27;;;;;;;;;;;;;;;;;;5030382;28;20362;-48
2024/03/27 00:16:53;;;;;;;;;;;;;;;;;;5018978;28;19921;-47
2024/03/27 00:19:19;;;;;;;;;;;;;;;;;;5012760;28;19921;-49
2024/03/27 00:21:45;;;;;;;;;;;;;;;;;;5013827;28;19918;-48
2024/03/27 00:24:12;;;;;;;;;;;;;;;;;;5012792;28;19914;-48
2024/03/27 00:26:38;;;;;;;;;;;;;;;;;;5024785;28;20371;-51
2024/03/27 00:29:04;;;;;;;;;;;;;;;;;;5032429;28;19917;-46
2024/03/27 00:31:30;;;;;;;;;;;;;;;;;;5020582;28;20267;-48
2024/03/27 00:33:56;;;;;;;;;;;;;;;;;;5014849;28;19946;-50
2024/03/27 00:36:22;;;;;;;;;;;;;;;;;;5023265;28;20426;-48
2024/03/27 00:38:49;;;;;;;;;;;;;;;;;;5031850;28;19967;-51
2024/03/27 00:41:15;;;;;;;;;;;;;;;;;;5031545;28;20377;-51
2024/03/27 00:43:41;;;;;;;;;;;;;;;;;;5032063;28;19979;-52
2024/03/27 00:46:07;;;;;;;;;;;;;;;;;;5030892;28;20011;-49
2024/03/27 00:48:33;;;;;;;;;;;;;;;;;;5028933;28;19995;-50
2024/03/27 00:50:59;;;;;;;;;;;;;;;;;;5032363;28;20381;-49
2024/03/27 00:53:25;;;;;;;;;;;;;;;;;;5031877;28;19917;-50
2024/03/27 00:55:51;;;;;;;;;;;;;;;;;;5024007;28;20324;-50
2024/03/27 00:58:18;;;;;;;;;;;;;;;;;;5031668;28;20427;-47
2024/03/27 01:00:44;;;;;;;;;;;;;;;;;;5026348;28;19918;-47
2024/03/27 01:03:10;;;;;;;;;;;;;;;;;;5014908;28;19920;-50
2024/03/27 01:05:36;;;;;;;;;;;;;;;;;;5022899;28;20294;-51
2024/03/27 01:08:02;;;;;;;;;;;;;;;;;;5021419;28;19957;-48
2024/03/27 01:10:28;;;;;;;;;;;;;;;;;;5038121;28;19959;-48
2024/03/27 01:12:54;;;;;;;;;;;;;;;;;;5038338;28;19919;-47
2024/03/27 01:15:22;;;;;;;;;;;;;;;;;;5035993;28;19916;-49
2024/03/27 01:17:48;;;;;;;;;;;;;;;;;;5038404;28;19917;-49
2024/03/27 01:20:16;;;;;;;;;;;;;;;;;;5025171;28;19996;-49
2024/03/27 01:22:42;;;;;;;;;;;;;;;;;;5001019;28;20435;-51
2024/03/27 01:25:08;;;;;;;;;;;;;;;;;;5031176;28;19940;-50
2024/03/27 01:27:34;;;;;;;;;;;;;;;;;;5020537;28;19920;-48
2024/03/27 01:30:01;;;;;;;;;;;;;;;;;;5030517;28;19914;-49
2024/03/27 01:32:27;;;;;;;;;;;;;;;;;;5040706;28;19913;-48
2024/03/27 01:34:53;;;;;;;;;;;;;;;;;;5038379;28;19909;-53
2024/03/27 01:37:19;;;;;;;;;;;;;;;;;;5028254;28;19914;-49
2024/03/27 01:39:45;;;;;;;;;;;;;;;;;;5000811;28;19909;-53
2024/03/27 01:42:11;;;;;;;;;;;;;;;;;;5018377;28;19917;-49
2024/03/27 01:44:37;;;;;;;;;;;;;;;;;;5018470;28;19923;-49
2024/03/27 01:47:03;;;;;;;;;;;;;;;;;;5031594;28;19935;-52
2024/03/27 01:49:29;;;;;;;;;;;;;;;;;;5023628;28;19913;-48
2024/03/27 01:51:55;;;;;;;;;;;;;;;;;;5033480;28;20072;-52
2024/03/27 01:54:21;;;;;;;;;;;;;;;;;;5018404;28;19914;-48
2024/03/27 01:56:47;;;;;;;;;;;;;;;;;;5018477;28;20011;-49
2024/03/27 01:59:14;;;;;;;;;;;;;;;;;;5018181;28;19909;-48
2024/03/27 02:01:45;;;;;;;;;;;;;;;;;;5012327;28;19924;-50
2024/03/27 02:04:11;;;;;;;;;;;;;;;;;;5020076;28;19913;-49
2024/03/27 02:06:38;;;;;;;;;;;;;;;;;;5018728;28;20382;-47
2024/03/27 02:09:04;;;;;;;;;;;;;;;;;;5018120;28;19953;-47
2024/03/27 02:11:30;;;;;;;;;;;;;;;;;;5033269;28;19967;-53
2024/03/27 02:13:56;;;;;;;;;;;;;;;;;;5026467;28;19959;-51
2024/03/27 02:16:22;;;;;;;;;;;;;;;;;;5027605;28;19909;-49
2024/03/27 02:18:48;;;;;;;;;;;;;;;;;;5048478;28;19967;-51
2024/03/27 02:21:14;;;;;;;;;;;;;;;;;;5031890;28;19917;-51
2024/03/27 02:23:40;;;;;;;;;;;;;;;;;;5003521;28;19936;-50
2024/03/27 02:26:06;;;;;;;;;;;;;;;;;;5033222;28;19909;-49
2024/03/27 02:28:32;;;;;;;;;;;;;;;;;;5015000;28;20173;-52
2024/03/27 02:30:58;;;;;;;;;;;;;;;;;;5022025;28;20212;-49
2024/03/27 02:33:24;;;;;;;;;;;;;;;;;;5048339;28;20404;-51
2024/03/27 02:35:50;;;;;;;;;;;;;;;;;;5031265;28;19913;-50
2024/03/27 02:38:16;;;;;;;;;;;;;;;;;;5027500;28;19921;-48
2024/03/27 02:40:42;;;;;;;;;;;;;;;;;;5029414;28;19960;-50
2024/03/27 02:43:09;;;;;;;;;;;;;;;;;;5029007;28;20002;-47
2024/03/27 02:45:35;;;;;;;;;;;;;;;;;;5018751;28;19937;-48
2024/03/27 02:48:01;;;;;;;;;;;;;;;;;;5033598;28;19913;-47
2024/03/27 02:50:27;;;;;;;;;;;;;;;;;;4997857;28;19953;-46
2024/03/27 02:52:53;;;;;;;;;;;;;;;;;;5020987;28;19919;-47
2024/03/27 02:55:19;;;;;;;;;;;;;;;;;;5029780;28;19960;-48
2024/03/27 02:57:45;;;;;;;;;;;;;;;;;;5019665;28;19975;-48
2024/03/27 03:00:11;;;;;;;;;;;;;;;;;;5031995;28;19951;-49
2024/03/27 03:02:37;;;;;;;;;;;;;;;;;;5015767;28;19921;-46
2024/03/27 03:05:03;;;;;;;;;;;;;;;;;;5014672;28;19965;-52
2024/03/27 03:07:29;;;;;;;;;;;;;;;;;;5022184;28;19913;-48
2024/03/27 03:09:55;;;;;;;;;;;;;;;;;;5015151;28;19909;-47
2024/03/27 03:12:22;;;;;;;;;;;;;;;;;;5028190;28;19914;-46
2024/03/27 03:14:48;;;;;;;;;;;;;;;;;;5012826;28;19921;-47
2024/03/27 03:17:14;;;;;;;;;;;;;;;;;;5014017;28;19913;-47
2024/03/27 03:19:40;;;;;;;;;;;;;;;;;;5013927;28;19913;-47
2024/03/27 03:22:07;;;;;;;;;;;;;;;;;;5012724;28;19917;-47
2024/03/27 03:24:33;;;;;;;;;;;;;;;;;;5015821;28;19909;-49
2024/03/27 03:26:59;;;;;;;;;;;;;;;;;;5024529;28;20377;-46
2024/03/27 03:29:25;;;;;;;;;;;;;;;;;;5031881;28;19960;-47
2024/03/27 03:31:51;;;;;;;;;;;;;;;;;;5018742;28;19920;-48
2024/03/27 03:34:17;;;;;;;;;;;;;;;;;;4998261;28;20436;-46
2024/03/27 03:36:43;;;;;;;;;;;;;;;;;;5014034;28;20431;-49
2024/03/27 03:39:09;;;;;;;;;;;;;;;;;;5013990;28;20363;-47
2024/03/27 03:41:36;;;;;;;;;;;;;;;;;;4996862;28;20003;-47
2024/03/27 03:44:02;;;;;;;;;;;;;;;;;;5014054;28;19921;-49
2024/03/27 03:46:28;;;;;;;;;;;;;;;;;;5025193;28;19939;-46
2024/03/27 03:48:54;;;;;;;;;;;;;;;;;;5000354;28;19976;-49
2024/03/27 03:51:20;;;;;;;;;;;;;;;;;;5020685;28;19996;-47
2024/03/27 03:53:46;;;;;;;;;;;;;;;;;;4999417;28;19921;-48
2024/03/27 03:56:12;;;;;;;;;;;;;;;;;;5025639;28;19916;-47
2024/03/27 03:58:38;;;;;;;;;;;;;;;;;;5015065;28;19913;-47
2024/03/27 04:01:06;;;;;;;;;;;;;;;;;;5030163;28;20014;-47
2024/03/27 04:03:32;;;;;;;;;;;;;;;;;;5032120;28;20289;-48
2024/03/27 04:05:58;;;;;;;;;;;;;;;;;;5048316;28;19920;-47
2024/03/27 04:08:24;;;;;;;;;;;;;;;;;;5013279;28;19916;-48
2024/03/27 04:10:51;;;;;;;;;;;;;;;;;;5013047;28;19920;-48
2024/03/27 04:13:17;;;;;;;;;;;;;;;;;;5025210;28;19915;-48
2024/03/27 04:15:43;;;;;;;;;;;;;;;;;;5024988;28;20392;-48
2024/03/27 04:18:09;;;;;;;;;;;;;;;;;;5012848;28;19917;-48
2024/03/27 04:20:36;;;;;;;;;;;;;;;;;;5020198;28;19963;-48
2024/03/27 04:23:02;;;;;;;;;;;;;;;;;;5032521;28;19909;-48
2024/03/27 04:25:28;;;;;;;;;;;;;;;;;;5032247;28;20005;-48
2024/03/27 04:27:54;;;;;;;;;;;;;;;;;;5030795;28;19913;-48
2024/03/27 04:30:20;;;;;;;;;;;;;;;;;;5029973;28;19917;-47
2024/03/27 04:32:46;;;;;;;;;;;;;;;;;;5013014;28;20369;-47
2024/03/27 04:35:13;;;;;;;;;;;;;;;;;;5029114;28;19913;-47
2024/03/27 04:37:39;;;;;;;;;;;;;;;;;;5012343;28;19913;-47
2024/03/27 04:40:09;;;;;;;;;;;;;;;;;;5012487;28;19939;-46
2024/03/27 04:42:36;;;;;;;;;;;;;;;;;;5011336;28;19941;-47
2024/03/27 04:45:02;;;;;;;;;;;;;;;;;;5013165;28;19909;-48
2024/03/27 04:47:28;;;;;;;;;;;;;;;;;;5026226;28;20016;-48
2024/03/27 04:49:54;;;;;;;;;;;;;;;;;;5013570;28;19921;-48
2024/03/27 04:52:20;;;;;;;;;;;;;;;;;;5012218;28;19914;-50
2024/03/27 04:54:46;;;;;;;;;;;;;;;;;;4998642;28;20354;-45
2024/03/27 04:57:12;;;;;;;;;;;;;;;;;;5012680;28;19914;-48
2024/03/27 04:59:38;;;;;;;;;;;;;;;;;;4994404;28;19992;-48
2024/03/27 05:02:04;;;;;;;;;;;;;;;;;;5011678;28;20016;-53
2024/03/27 05:04:30;;;;;;;;;;;;;;;;;;5011175;28;19937;-48
2024/03/27 05:06:57;;;;;;;;;;;;;;;;;;5012325;28;19913;-48
2024/03/27 05:09:24;;;;;;;;;;;;;;;;;;5012117;28;19964;-49
2024/03/27 05:11:51;;;;;;;;;;;;;;;;;;5012229;28;19913;-50
2024/03/27 05:14:17;;;;;;;;;;;;;;;;;;5012780;28;19941;-49
2024/03/27 05:16:43;;;;;;;;;;;;;;;;;;5012485;28;19917;-48
2024/03/27 05:19:10;;;;;;;;;;;;;;;;;;5012034;28;19987;-48
2024/03/27 05:21:36;;;;;;;;;;;;;;;;;;5012022;28;19972;-49
2024/03/27 05:24:02;;;;;;;;;;;;;;;;;;5012205;28;20359;-48
2024/03/27 05:26:28;;;;;;;;;;;;;;;;;;5011926;28;19922;-49
2024/03/27 05:28:55;;;;;;;;;;;;;;;;;;4994424;28;19949;-51
2024/03/27 05:31:21;;;;;;;;;;;;;;;;;;5012097;28;20285;-48
2024/03/27 05:33:47;;;;;;;;;;;;;;;;;;5012147;28;19910;-49
2024/03/27 05:36:13;;;;;;;;;;;;;;;;;;5012083;28;19913;-52
2024/03/27 05:38:39;;;;;;;;;;;;;;;;;;5010830;28;19920;-49
2024/03/27 05:41:05;;;;;;;;;;;;;;;;;;5012022;28;20366;-48
2024/03/27 05:43:31;;;;;;;;;;;;;;;;;;5012042;28;19909;-50
2024/03/27 05:45:57;;;;;;;;;;;;;;;;;;5012130;28;19921;-49
2024/03/27 05:48:27;;;;;;;;;;;;;;;;;;5011988;28;19972;-48
2024/03/27 05:50:53;;;;;;;;;;;;;;;;;;5014399;28;19914;-48
2024/03/27 05:53:19;;;;;;;;;;;;;;;;;;5015784;28;20359;-53
2024/03/27 05:55:45;;;;;;;;;;;;;;;;;;5015606;28;19960;-51
2024/03/27 05:58:11;;;;;;;;;;;;;;;;;;5015457;28;20354;-48
2024/03/27 06:00:37;;;;;;;;;;;;;;;;;;5015235;28;19914;-48
2024/03/27 06:03:04;;;;;;;;;;;;;;;;;;5015678;28;19977;-48
2024/03/27 06:05:30;;;;;;;;;;;;;;;;;;5015582;28;20432;-48
2024/03/27 06:07:56;;;;;;;;;;;;;;;;;;5015398;28;20377;-49
2024/03/27 06:10:22;;;;;;;;;;;;;;;;;;5015249;28;19921;-48
2024/03/27 06:12:48;;;;;;;;;;;;;;;;;;5015675;28;19917;-48
2024/03/27 06:15:15;;;;;;;;;;;;;;;;;;5015368;28;19913;-51
2024/03/27 06:17:41;;;;;;;;;;;;;;;;;;5015082;28;19909;-52
2024/03/27 06:20:08;;;;;;;;;;;;;;;;;;5015177;28;19936;-48
2024/03/27 06:22:34;;;;;;;;;;;;;;;;;;5015135;28;19920;-52
2024/03/27 06:25:00;;;;;;;;;;;;;;;;;;5015140;28;20004;-50
2024/03/27 06:27:26;;;;;;;;;;;;;;;;;;5015015;28;19956;-50
2024/03/27 06:29:52;;;;;;;;;;;;;;;;;;5015021;28;19936;-51
2024/03/27 06:32:18;;;;;;;;;;;;;;;;;;5013723;28;19921;-52
2024/03/27 06:34:44;;;;;;;;;;;;;;;;;;5015075;28;19952;-49
2024/03/27 06:37:10;;;;;;;;;;;;;;;;;;5014970;28;19916;-52
2024/03/27 06:39:37;;;;;;;;;;;;;;;;;;5014792;28;20015;-51
2024/03/27 06:42:03;;;;;;;;;;;;;;;;;;5014882;28;20286;-53
2024/03/27 06:44:30;;;;;;;;;;;;;;;;;;5014906;28;19914;-54
2024/03/27 06:46:56;;;;;;;;;;;;;;;;;;5014721;28;19997;-51
2024/03/27 06:49:31;;;;;;;;;;;;;;;;;;5014510;28;19920;-56
2024/03/27 06:51:58;;;;;;;;;;;;;;;;;;5014597;28;19924;-58
2024/03/27 06:54:24;;;;;;;;;;;;;;;;;;5019143;28;19948;-59
2024/03/27 06:56:50;;;;;;;;;;;;;;;;;;5033452;28;20011;-58
2024/03/27 06:59:16;;;;;;;;;;;;;;;;;;5024751;28;19909;-52
2024/03/27 07:01:42;;;;;;;;;;;;;;;;;;5033708;28;19968;-49
2024/03/27 07:04:08;;;;;;;;;;;;;;;;;;5034328;28;19913;-51
2024/03/27 07:06:34;;;;;;;;;;;;;;;;;;5034363;28;19913;-51
2024/03/27 07:09:00;;;;;;;;;;;;;;;;;;5034001;28;19913;-50
2024/03/27 07:11:26;;;;;;;;;;;;;;;;;;5034178;28;19968;-47
2024/03/27 07:13:52;;;;;;;;;;;;;;;;;;5034278;28;19955;-48
2024/03/27 07:16:19;;;;;;;;;;;;;;;;;;5034034;28;19967;-48
2024/03/27 07:18:45;;;;;;;;;;;;;;;;;;5032532;28;20333;-47
2024/03/27 07:21:11;;;;;;;;;;;;;;;;;;5033693;28;20420;-48
2024/03/27 07:23:37;;;;;;;;;;;;;;;;;;5033738;28;20293;-47
2024/03/27 07:26:03;;;;;;;;;;;;;;;;;;5033797;28;19913;-46
2024/03/27 07:28:29;;;;;;;;;;;;;;;;;;5033725;28;20290;-47
2024/03/27 07:30:58;;;;;;;;;;;;;;;;;;5015818;28;20405;-47
2024/03/27 07:33:24;;;;;;;;;;;;;;;;;;5033594;28;19921;-47
2024/03/27 07:35:50;;;;;;;;;;;;;;;;;;5033479;28;19949;-46
2024/03/27 07:38:16;;;;;;;;;;;;;;;;;;5033511;28;19964;-48
2024/03/27 07:40:42;;;;;;;;;;;;;;;;;;5033344;28;19914;-51
2024/03/27 07:43:08;;;;;;;;;;;;;;;;;;5033479;28;19914;-47
2024/03/27 07:45:34;;;;;;;;;;;;;;;;;;5033341;28;19913;-47
2024/03/27 07:48:00;;;;;;;;;;;;;;;;;;5033169;28;19916;-47
2024/03/27 07:50:26;;;;;;;;;;;;;;;;;;5033189;28;19913;-48
2024/03/27 07:52:52;;;;;;;;;;;;;;;;;;5033342;28;19940;-50
2024/03/27 07:55:18;;;;;;;;;;;;;;;;;;5032868;28;20361;-49
2024/03/27 07:57:44;;;;;;;;;;;;;;;;;;5032940;28;19932;-49
2024/03/27 08:00:11;;;;;;;;;;;;;;;;;;5015472;28;20301;-48
2024/03/27 08:02:37;;;;;;;;;;;;;;;;;;5032948;28;19913;-49
2024/03/27 08:05:05;;;;;;;;;;;;;;;;;;5032918;28;19913;-47
2024/03/27 08:07:31;;;;;;;;;;;;;;;;;;5032779;28;19949;-49
2024/03/27 08:09:57;;;;;;;;;;;;;;;;;;5015174;28;19953;-49
2024/03/27 08:12:23;;;;;;;;;;;;;;;;;;5032090;28;20289;-48
2024/03/27 08:14:49;;;;;;;;;;;;;;;;;;5032847;28;19913;-47
2024/03/27 08:17:15;;;;;;;;;;;;;;;;;;5015092;28;19916;-47
2024/03/27 08:19:41;;;;;;;;;;;;;;;;;;5032701;28;19913;-47
2024/03/27 08:22:07;;;;;;;;;;;;;;;;;;5032762;28;19919;-47
2024/03/27 08:24:33;;;;;;;;;;;;;;;;;;5032684;28;20293;-49
2024/03/27 08:26:59;;;;;;;;;;;;;;;;;;5032574;28;19909;-47
2024/03/27 08:29:26;;;;;;;;;;;;;;;;;;5032365;28;19938;-48
2024/03/27 08:31:52;;;;;;;;;;;;;;;;;;5032490;28;19916;-47
2024/03/27 08:34:18;;;;;;;;;;;;;;;;;;5032505;28;19917;-48
2024/03/27 08:36:44;;;;;;;;;;;;;;;;;;5032424;28;19909;-47
2024/03/27 08:39:10;;;;;;;;;;;;;;;;;;5032319;28;19913;-48
2024/03/27 08:41:36;;;;;;;;;;;;;;;;;;5032242;28;20381;-49
2024/03/27 08:44:03;;;;;;;;;;;;;;;;;;5032354;28;19920;-48
2024/03/27 08:46:29;;;;;;;;;;;;;;;;;;5014844;28;19915;-49
2024/03/27 08:48:55;;;;;;;;;;;;;;;;;;5032107;28;19995;-48
2024/03/27 08:51:22;;;;;;;;;;;;;;;;;;4998149;28;19909;-47
2024/03/27 08:53:48;;;;;;;;;;;;;;;;;;5032312;28;20278;-47
2024/03/27 08:56:15;;;;;;;;;;;;;;;;;;5032125;28;20362;-47
2024/03/27 08:58:41;;;;;;;;;;;;;;;;;;5031967;28;19920;-47
2024/03/27 09:01:07;;;;;;;;;;;;;;;;;;5031559;28;19917;-47
2024/03/27 09:03:33;;;;;;;;;;;;;;;;;;5035846;28;19913;-48
2024/03/27 09:05:59;;;;;;;;;;;;;;;;;;5034751;28;19958;-47
2024/03/27 09:08:25;;;;;;;;;;;;;;;;;;5032018;28;19967;-47
2024/03/27 09:10:51;;;;;;;;;;;;;;;;;;5031915;28;19916;-47
2024/03/27 09:13:17;;;;;;;;;;;;;;;;;;5014484;28;20289;-47
2024/03/27 09:15:43;;;;;;;;;;;;;;;;;;5032095;28;19916;-47
2024/03/27 09:18:10;;;;;;;;;;;;;;;;;;5031970;28;20270;-46
2024/03/27 09:20:36;;;;;;;;;;;;;;;;;;5031904;28;19913;-50
2024/03/27 09:23:02;;;;;;;;;;;;;;;;;;5031959;28;19913;-46
2024/03/27 09:25:28;;;;;;;;;;;;;;;;;;5035543;28;20011;-48
2024/03/27 09:27:54;;;;;;;;;;;;;;;;;;5035814;28;19920;-50
2024/03/27 09:30:21;;;;;;;;;;;;;;;;;;5018266;28;19932;-47
2024/03/27 09:32:47;;;;;;;;;;;;;;;;;;5036094;28;19913;-48
2024/03/27 09:35:13;;;;;;;;;;;;;;;;;;5035850;28;19999;-47
2024/03/27 09:37:39;;;;;;;;;;;;;;;;;;5017975;28;20011;-47
2024/03/27 09:40:05;;;;;;;;;;;;;;;;;;5035600;28;19917;-48
2024/03/27 09:42:31;;;;;;;;;;;;;;;;;;5035642;28;19917;-47
2024/03/27 09:44:58;;;;;;;;;;;;;;;;;;5035717;28;19913;-47
2024/03/27 09:47:24;;;;;;;;;;;;;;;;;;5034680;28;20285;-47
2024/03/27 09:49:50;;;;;;;;;;;;;;;;;;5035433;28;20027;-47
2024/03/27 09:52:16;;;;;;;;;;;;;;;;;;5035450;28;20530;-50
2024/03/27 09:54:43;;;;;;;;;;;;;;;;;;5035416;28;20296;-47
2024/03/27 09:57:10;;;;;;;;;;;;;;;;;;5035238;28;19924;-50
2024/03/27 09:59:36;;;;;;;;;;;;;;;;;;5035306;28;19917;-49
2024/03/27 10:02:06;;;;;;;;;;;;;;;;;;5035232;28;20004;-47
2024/03/27 10:04:33;;;;;;;;;;;;;;;;;;5035244;28;19916;-47
2024/03/27 10:06:59;;;;;;;;;;;;;;;;;;5035137;28;19917;-47
2024/03/27 10:09:25;;;;;;;;;;;;;;;;;;5034995;28;20389;-49
2024/03/27 10:11:52;;;;;;;;;;;;;;;;;;5034946;28;19913;-47
2024/03/27 10:14:19;;;;;;;;;;;;;;;;;;5034988;28;19992;-47
2024/03/27 10:16:45;;;;;;;;;;;;;;;;;;5035286;28;19913;-47
2024/03/27 10:19:11;;;;;;;;;;;;;;;;;;5034825;28;20120;-47
2024/03/27 10:21:37;;;;;;;;;;;;;;;;;;5034852;28;19924;-48
2024/03/27 10:24:03;;;;;;;;;;;;;;;;;;5034883;28;19916;-47
2024/03/27 10:26:29;;;;;;;;;;;;;;;;;;5034814;28;19913;-47
2024/03/27 10:28:55;;;;;;;;;;;;;;;;;;5034561;28;20012;-49
2024/03/27 10:31:21;;;;;;;;;;;;;;;;;;5034692;28;19951;-49
2024/03/27 10:33:48;;;;;;;;;;;;;;;;;;5034668;28;19917;-49
2024/03/27 10:36:14;;;;;;;;;;;;;;;;;;5033871;28;19913;-47
2024/03/27 10:38:40;;;;;;;;;;;;;;;;;;5016723;28;19909;-50
2024/03/27 10:41:06;;;;;;;;;;;;;;;;;;5034542;28;20374;-48
2024/03/27 10:43:32;;;;;;;;;;;;;;;;;;5034513;28;19909;-50
2024/03/27 10:45:58;;;;;;;;;;;;;;;;;;5034684;28;19924;-49
2024/03/27 10:48:24;;;;;;;;;;;;;;;;;;5016493;28;19909;-48
2024/03/27 10:50:50;;;;;;;;;;;;;;;;;;5034395;28;19913;-47
2024/03/27 10:53:16;;;;;;;;;;;;;;;;;;5034344;28;19971;-47
2024/03/27 10:55:42;;;;;;;;;;;;;;;;;;5034372;28;19913;-47
2024/03/27 10:58:09;;;;;;;;;;;;;;;;;;5034146;28;19916;-47
2024/03/27 11:00:35;;;;;;;;;;;;;;;;;;5057102;22;19919;-53
2024/03/27 11:03:02;;;;;;;;;;;;;;;;;;5013343;28;19925;-49
2024/03/27 11:05:28;;;;;;;;;;;;;;;;;;5014267;28;20358;-49
2024/03/27 11:07:54;;;;;;;;;;;;;;;;;;5014177;28;19909;-49
2024/03/27 11:10:20;;;;;;;;;;;;;;;;;;5014241;28;19918;-50
2024/03/27 11:12:48;;;;;;;;;;;;;;;;;;5014077;28;19956;-49
2024/03/27 11:15:14;;;;;;;;;;;;;;;;;;5014179;28;19967;-50
2024/03/27 11:17:40;;;;;;;;;;;;;;;;;;5014022;28;19914;-49
2024/03/27 11:20:06;;;;;;;;;;;;;;;;;;4996342;28;20007;-50
2024/03/27 11:22:32;;;;;;;;;;;;;;;;;;5012505;28;19914;-50
2024/03/27 11:24:58;;;;;;;;;;;;;;;;;;5013235;28;19913;-50
2024/03/27 11:27:24;;;;;;;;;;;;;;;;;;5013855;28;19913;-49
2024/03/27 11:29:51;;;;;;;;;;;;;;;;;;5013963;28;19913;-50
2024/03/27 11:32:17;;;;;;;;;;;;;;;;;;5013733;28;20278;-51
2024/03/27 11:34:43;;;;;;;;;;;;;;;;;;5013739;28;19960;-49
2024/03/27 11:37:09;;;;;;;;;;;;;;;;;;5010650;28;19916;-49
2024/03/27 11:39:35;;;;;;;;;;;;;;;;;;4994110;28;19913;-49
2024/03/27 11:42:01;;;;;;;;;;;;;;;;;;5007129;28;19925;-49
2024/03/27 11:44:27;;;;;;;;;;;;;;;;;;5007720;28;19917;-49
2024/03/27 11:46:53;;;;;;;;;;;;;;;;;;5003175;28;20397;-51
2024/03/27 11:49:19;;;;;;;;;;;;;;;;;;4997474;28;20056;-49
2024/03/27 11:51:45;;;;;;;;;;;;;;;;;;5011340;28;19924;-49
2024/03/27 11:54:11;;;;;;;;;;;;;;;;;;5010277;28;19924;-49
2024/03/27 11:56:38;;;;;;;;;;;;;;;;;;5004474;28;19918;-53
2024/03/27 11:59:04;;;;;;;;;;;;;;;;;;4990511;28;20374;-53
2024/03/27 12:01:30;;;;;;;;;;;;;;;;;;5000998;28;19992;-51
2024/03/27 12:03:56;;;;;;;;;;;;;;;;;;5001882;28;19917;-49
2024/03/27 12:06:22;;;;;;;;;;;;;;;;;;5008648;28;19922;-49
2024/03/27 12:08:48;;;;;;;;;;;;;;;;;;4999139;28;19960;-49
2024/03/27 12:11:14;;;;;;;;;;;;;;;;;;5009026;28;19918;-49
2024/03/27 12:13:40;;;;;;;;;;;;;;;;;;4974752;28;19984;-49
2024/03/27 12:16:06;;;;;;;;;;;;;;;;;;5001615;28;19914;-49
2024/03/27 12:18:32;;;;;;;;;;;;;;;;;;4993945;28;20293;-49
2024/03/27 12:20:58;;;;;;;;;;;;;;;;;;4991686;28;19949;-53
2024/03/27 12:23:24;;;;;;;;;;;;;;;;;;4990004;28;20012;-51
2024/03/27 12:25:50;;;;;;;;;;;;;;;;;;5021781;28;20289;-51
2024/03/27 12:28:16;;;;;;;;;;;;;;;;;;5009543;28;19979;-52
2024/03/27 12:30:43;;;;;;;;;;;;;;;;;;5005853;28;20449;-51
2024/03/27 12:33:10;;;;;;;;;;;;;;;;;;4974262;28;19991;-50
2024/03/27 12:35:36;;;;;;;;;;;;;;;;;;4992765;28;19909;-52
2024/03/27 12:38:02;;;;;;;;;;;;;;;;;;4991478;28;19914;-49
2024/03/27 12:40:28;;;;;;;;;;;;;;;;;;5005822;28;20310;-50
2024/03/27 12:42:54;;;;;;;;;;;;;;;;;;5025518;28;20024;-49
2024/03/27 12:45:20;;;;;;;;;;;;;;;;;;4992585;28;19921;-51
2024/03/27 12:47:46;;;;;;;;;;;;;;;;;;4991249;28;20306;-50
2024/03/27 12:50:12;;;;;;;;;;;;;;;;;;4975267;28;19914;-50
2024/03/27 12:52:39;;;;;;;;;;;;;;;;;;4991363;28;20309;-52
2024/03/27 12:55:05;;;;;;;;;;;;;;;;;;4974199;28;19917;-50
2024/03/27 12:57:31;;;;;;;;;;;;;;;;;;5008584;28;19920;-49
2024/03/27 12:59:57;;;;;;;;;;;;;;;;;;4998217;28;19969;-53
2024/03/27 13:02:23;;;;;;;;;;;;;;;;;;5009718;28;19923;-49
2024/03/27 13:04:49;;;;;;;;;;;;;;;;;;5011016;28;19921;-52
2024/03/27 13:07:15;;;;;;;;;;;;;;;;;;4994767;28;19913;-50
2024/03/27 13:09:41;;;;;;;;;;;;;;;;;;5001157;28;19963;-50
2024/03/27 13:12:07;;;;;;;;;;;;;;;;;;5010741;28;19917;-50
2024/03/27 13:14:34;;;;;;;;;;;;;;;;;;5010756;28;19944;-49
2024/03/27 13:17:00;;;;;;;;;;;;;;;;;;4994936;28;19918;-50
2024/03/27 13:19:26;;;;;;;;;;;;;;;;;;4998573;28;20381;-49
2024/03/27 13:21:52;;;;;;;;;;;;;;;;;;5008649;28;19917;-50
2024/03/27 13:24:19;;;;;;;;;;;;;;;;;;5010623;28;19909;-49
2024/03/27 13:26:45;;;;;;;;;;;;;;;;;;4997678;28;19914;-51
2024/03/27 13:29:11;;;;;;;;;;;;;;;;;;4990876;28;20038;-50
2024/03/27 13:31:37;;;;;;;;;;;;;;;;;;4992124;28;20318;-50
2024/03/27 13:34:03;;;;;;;;;;;;;;;;;;4982482;28;19920;-52
2024/03/27 13:36:29;;;;;;;;;;;;;;;;;;5006548;28;19914;-49
2024/03/27 13:38:55;;;;;;;;;;;;;;;;;;4973368;28;19910;-50
2024/03/27 13:41:21;;;;;;;;;;;;;;;;;;4980952;28;19917;-49
2024/03/27 13:43:47;;;;;;;;;;;;;;;;;;5025435;28;19975;-49
2024/03/27 13:46:13;;;;;;;;;;;;;;;;;;4983431;28;20008;-49
2024/03/27 13:48:39;;;;;;;;;;;;;;;;;;4990689;28;19914;-49
2024/03/27 13:51:06;;;;;;;;;;;;;;;;;;4980687;28;19917;-50
2024/03/27 13:53:32;;;;;;;;;;;;;;;;;;5025762;28;19909;-50
2024/03/27 13:55:58;;;;;;;;;;;;;;;;;;5018298;28;20398;-50
2024/03/27 13:58:24;;;;;;;;;;;;;;;;;;5010187;28;19913;-49
2024/03/27 14:00:50;;;;;;;;;;;;;;;;;;5003585;28;19925;-50
2024/03/27 14:03:16;;;;;;;;;;;;;;;;;;4993938;28;19917;-51
2024/03/27 14:05:43;;;;;;;;;;;;;;;;;;5025289;28;19918;-49
2024/03/27 14:08:09;;;;;;;;;;;;;;;;;;5003782;28;19914;-50
2024/03/27 14:10:35;;;;;;;;;;;;;;;;;;5004606;28;19914;-49
2024/03/27 14:13:01;;;;;;;;;;;;;;;;;;5013339;28;19968;-49
2024/03/27 14:15:27;;;;;;;;;;;;;;;;;;4994221;28;20267;-49
2024/03/27 14:17:53;;;;;;;;;;;;;;;;;;4993986;28;19917;-49
2024/03/27 14:20:19;;;;;;;;;;;;;;;;;;4978993;28;19914;-50
2024/03/27 14:22:46;;;;;;;;;;;;;;;;;;4995325;28;19925;-50
2024/03/27 14:25:12;;;;;;;;;;;;;;;;;;4979891;28;19913;-50
2024/03/27 14:27:38;;;;;;;;;;;;;;;;;;5001765;28;20542;-49
2024/03/27 14:30:04;;;;;;;;;;;;;;;;;;5029952;28;19917;-50
2024/03/27 14:32:30;;;;;;;;;;;;;;;;;;4995010;28;19921;-49
2024/03/27 14:34:57;;;;;;;;;;;;;;;;;;4977123;28;19914;-50
2024/03/27 14:37:23;;;;;;;;;;;;;;;;;;4993998;28;19910;-49
2024/03/27 14:39:49;;;;;;;;;;;;;;;;;;4995331;28;20008;-50
2024/03/27 14:42:15;;;;;;;;;;;;;;;;;;5009732;28;19925;-50
2024/03/27 14:44:41;;;;;;;;;;;;;;;;;;4981004;28;19918;-50
2024/03/27 14:47:07;;;;;;;;;;;;;;;;;;5014772;28;19909;-51
2024/03/27 14:49:33;;;;;;;;;;;;;;;;;;5014871;28;19913;-51
2024/03/27 14:52:00;;;;;;;;;;;;;;;;;;5014850;28;19909;-50
2024/03/27 14:54:26;;;;;;;;;;;;;;;;;;5014628;28;19953;-50
2024/03/27 14:56:52;;;;;;;;;;;;;;;;;;4992860;28;20419;-50
2024/03/27 14:59:18;;;;;;;;;;;;;;;;;;5014388;28;20004;-50
2024/03/27 15:01:44;;;;;;;;;;;;;;;;;;5014094;28;20362;-49
2024/03/27 15:04:11;;;;;;;;;;;;;;;;;;4997004;28;19913;-49
2024/03/27 15:06:37;;;;;;;;;;;;;;;;;;5014211;28;19916;-52
2024/03/27 15:09:03;;;;;;;;;;;;;;;;;;4985875;28;19914;-52
2024/03/27 15:11:29;;;;;;;;;;;;;;;;;;4995742;28;20390;-48
2024/03/27 15:13:55;;;;;;;;;;;;;;;;;;5007266;28;20297;-48
2024/03/27 15:16:21;;;;;;;;;;;;;;;;;;4990372;28;19920;-50
2024/03/27 15:18:47;;;;;;;;;;;;;;;;;;5006255;28;19913;-53
2024/03/27 15:21:13;;;;;;;;;;;;;;;;;;4997324;28;20011;-53
2024/03/27 15:23:40;;;;;;;;;;;;;;;;;;5013600;28;19917;-50
2024/03/27 15:26:06;;;;;;;;;;;;;;;;;;5014018;28;19910;-51
2024/03/27 15:28:32;;;;;;;;;;;;;;;;;;5013851;28;19914;-53
2024/03/27 15:31:00;;;;;;;;;;;;;;;;;;4996238;28;19956;-53
2024/03/27 15:33:26;;;;;;;;;;;;;;;;;;5013885;28;20308;-51
2024/03/27 15:35:53;;;;;;;;;;;;;;;;;;5013793;28;19909;-52
2024/03/27 15:38:19;;;;;;;;;;;;;;;;;;5013517;28;20012;-50
2024/03/27 15:40:45;;;;;;;;;;;;;;;;;;5013541;28;19917;-54
2024/03/27 15:43:13;;;;;;;;;;;;;;;;;;5014058;28;19917;-51
2024/03/27 15:45:39;;;;;;;;;;;;;;;;;;5028715;28;20370;-50
2024/03/27 15:48:05;;;;;;;;;;;;;;;;;;5013604;28;19913;-50
2024/03/27 15:50:31;;;;;;;;;;;;;;;;;;5028733;28;19910;-50
2024/03/27 15:52:57;;;;;;;;;;;;;;;;;;5013438;28;19960;-50
2024/03/27 15:55:23;;;;;;;;;;;;;;;;;;5028581;28;19909;-50
2024/03/27 15:57:50;;;;;;;;;;;;;;;;;;5012985;28;19925;-50
2024/03/27 16:00:16;;;;;;;;;;;;;;;;;;5028490;28;19917;-51
2024/03/27 16:02:42;;;;;;;;;;;;;;;;;;5012048;28;20469;-49
2024/03/27 16:05:08;;;;;;;;;;;;;;;;;;5013183;28;20297;-50
2024/03/27 16:07:34;;;;;;;;;;;;;;;;;;5012004;28;19913;-51
2024/03/27 16:10:00;;;;;;;;;;;;;;;;;;5011904;28;20342;-49
2024/03/27 16:12:26;;;;;;;;;;;;;;;;;;5012906;28;19963;-51
2024/03/27 16:14:52;;;;;;;;;;;;;;;;;;5013555;28;19916;-49
2024/03/27 16:17:18;;;;;;;;;;;;;;;;;;5013129;28;20408;-50
2024/03/27 16:19:46;;;;;;;;;;;;;;;;;;5013148;28;20275;-50
2024/03/27 16:22:12;;;;;;;;;;;;;;;;;;5012738;28;19924;-50
2024/03/27 16:24:38;;;;;;;;;;;;;;;;;;5012933;28;20400;-49
2024/03/27 16:27:05;;;;;;;;;;;;;;;;;;5012772;28;19914;-50
2024/03/27 16:29:31;;;;;;;;;;;;;;;;;;5003652;28;20223;-51
2024/03/27 16:31:57;;;;;;;;;;;;;;;;;;5032311;28;19913;-51
2024/03/27 16:34:23;;;;;;;;;;;;;;;;;;5030539;28;20065;-50
2024/03/27 16:36:49;;;;;;;;;;;;;;;;;;5032386;28;19944;-50
2024/03/27 16:39:15;;;;;;;;;;;;;;;;;;5029254;28;19909;-50